createdAt,value
2019-05-12T00:02:51.036Z,12.13
2019-05-12T00:06:59.279Z,12.18
2019-05-12T00:11:08.989Z,12.12
2019-05-12T00:15:19.278Z,12.11
2019-05-12T00:19:28.585Z,12.00
2019-05-12T00:23:58.062Z,12.04
2019-05-12T00:28:05.158Z,12.12
2019-05-12T00:32:13.769Z,12.07
2019-05-12T00:36:22.402Z,12.03
2019-05-12T00:40:30.247Z,11.92
2019-05-12T00:44:39.169Z,11.87
2019-05-12T00:48:48.345Z,12.00
2019-05-12T00:52:57.954Z,12.03
2019-05-12T00:57:07.678Z,11.93
2019-05-12T01:01:18.272Z,11.98
2019-05-12T01:05:25.610Z,12.02
2019-05-12T01:09:33.879Z,11.98
2019-05-12T01:13:41.502Z,11.97
2019-05-12T01:17:49.621Z,11.85
2019-05-12T01:21:58.711Z,11.97
2019-05-12T01:26:08.844Z,12.08
2019-05-12T01:30:18.035Z,12.05
2019-05-12T01:34:27.801Z,12.03
2019-05-12T01:38:37.798Z,12.10
2019-05-12T01:42:45.374Z,12.11
2019-05-12T01:46:53.797Z,12.06
2019-05-12T01:51:01.424Z,11.86
2019-05-12T01:55:10.036Z,11.86
2019-05-12T01:59:18.574Z,11.70
2019-05-12T02:03:28.193Z,11.60
2019-05-12T02:07:40.376Z,11.55
2019-05-12T02:11:48.573Z,11.68
2019-05-12T02:15:57.872Z,11.64
2019-05-12T02:20:07.870Z,11.68
2019-05-12T02:24:24.342Z,11.67
2019-05-12T02:28:25.199Z,11.67
2019-05-12T02:32:47.230Z,11.69
2019-05-12T02:36:44.799Z,11.67
2019-05-12T02:40:55.396Z,11.71
2019-05-12T02:45:05.527Z,11.80
2019-05-12T02:49:14.648Z,11.75
2019-05-12T02:53:24.793Z,11.65
2019-05-12T02:57:34.342Z,11.64
2019-05-12T03:01:45.246Z,11.64
2019-05-12T03:05:55.090Z,11.64
2019-05-12T03:10:05.140Z,11.71
2019-05-12T03:14:15.693Z,11.78
2019-05-12T03:18:25.131Z,11.72
2019-05-12T03:22:35.281Z,11.75
2019-05-12T03:26:45.006Z,11.80
2019-05-12T03:30:57.766Z,11.83
2019-05-12T03:35:08.164Z,11.88
2019-05-12T03:39:15.021Z,11.92
2019-05-12T03:43:24.452Z,11.79
2019-05-12T03:47:35.582Z,11.91
2019-05-12T03:51:45.239Z,12.06
2019-05-12T03:55:55.067Z,12.23
2019-05-12T04:00:04.950Z,12.27
2019-05-12T04:04:11.334Z,12.38
2019-05-12T04:08:19.273Z,12.51
2019-05-12T04:12:26.979Z,12.76
2019-05-12T04:16:36.425Z,12.97
2019-05-12T04:20:45.510Z,13.14
2019-05-12T04:24:55.130Z,13.32
2019-05-12T04:29:05.061Z,13.47
2019-05-12T04:33:15.494Z,13.69
2019-05-12T04:37:24.909Z,13.94
2019-05-12T04:41:35.436Z,14.38
2019-05-12T04:45:45.055Z,14.95
2019-05-12T04:49:54.593Z,15.39
2019-05-12T04:54:05.375Z,15.25
2019-05-12T04:58:15.620Z,15.18
2019-05-12T05:02:25.017Z,15.77
2019-05-12T05:06:34.011Z,16.13
2019-05-12T05:10:40.567Z,16.24
2019-05-12T05:14:48.486Z,16.36
2019-05-12T05:18:56.738Z,16.59
2019-05-12T05:23:04.996Z,16.65
2019-05-12T05:27:13.319Z,16.94
2019-05-12T05:31:21.484Z,17.27
2019-05-12T05:35:35.137Z,17.58
2019-05-12T05:39:47.960Z,17.96
2019-05-12T05:43:52.954Z,18.03
2019-05-12T05:47:59.676Z,18.56
2019-05-12T05:52:07.549Z,18.56
2019-05-12T05:56:18.207Z,18.85
2019-05-12T06:00:26.335Z,19.08
2019-05-12T06:04:34.453Z,19.35
2019-05-12T06:08:47.038Z,19.43
2019-05-12T06:12:54.761Z,19.52
2019-05-12T06:17:04.344Z,19.40
2019-05-12T06:21:13.697Z,19.86
2019-05-12T06:25:21.558Z,19.91
2019-05-12T06:29:29.582Z,19.99
2019-05-12T06:33:39.032Z,20.16
2019-05-12T06:37:57.372Z,20.52
2019-05-12T06:42:01.930Z,20.98
2019-05-12T06:46:06.711Z,21.60
2019-05-12T06:50:14.765Z,21.97
2019-05-12T06:54:24.709Z,22.11
2019-05-12T06:58:34.369Z,22.33
2019-05-12T07:02:50.041Z,23.07
2019-05-12T07:06:56.185Z,23.19
2019-05-12T07:11:05.941Z,23.36
2019-05-12T07:15:14.271Z,23.42
2019-05-12T07:19:23.373Z,23.52
2019-05-12T07:23:33.682Z,23.38
2019-05-12T07:27:47.304Z,23.50
2019-05-12T07:31:53.663Z,24.04
2019-05-12T07:36:06.454Z,23.91
2019-05-12T07:40:13.717Z,24.22
2019-05-12T07:44:25.315Z,24.70
2019-05-12T07:48:33.505Z,25.07
2019-05-12T07:52:44.163Z,25.26
2019-05-12T07:56:53.968Z,25.30
2019-05-12T08:01:02.706Z,24.85
2019-05-12T08:05:19.551Z,25.37
2019-05-12T08:09:24.147Z,25.73
2019-05-12T08:13:35.993Z,25.85
2019-05-12T08:17:40.539Z,25.52
2019-05-12T08:21:49.173Z,25.84
2019-05-12T08:25:57.809Z,26.19
2019-05-12T08:30:06.911Z,25.56
2019-05-12T08:34:14.842Z,26.28
2019-05-12T08:38:24.886Z,26.02
2019-05-12T08:42:34.421Z,26.58
2019-05-12T08:46:51.910Z,26.37
2019-05-12T08:50:54.494Z,26.34
2019-05-12T08:55:04.306Z,26.30
2019-05-12T08:59:17.582Z,26.36
2019-05-12T09:03:27.189Z,26.97
2019-05-12T09:07:35.807Z,26.97
2019-05-12T09:11:41.109Z,26.58
2019-05-12T09:15:48.654Z,26.27
2019-05-12T09:20:03.661Z,26.27
2019-05-12T09:24:06.087Z,26.27
2019-05-12T09:28:13.985Z,27.07
2019-05-12T09:32:23.511Z,26.90
2019-05-12T09:36:33.927Z,27.65
2019-05-12T09:40:43.547Z,27.49
2019-05-12T09:44:50.900Z,27.59
2019-05-12T09:48:58.850Z,27.59
2019-05-12T09:53:11.503Z,27.49
2019-05-12T09:57:17.108Z,27.17
2019-05-12T10:01:29.260Z,27.17
2019-05-12T10:05:41.144Z,26.57
2019-05-12T10:09:49.256Z,26.55
2019-05-12T10:14:00.119Z,27.05
2019-05-12T10:18:10.877Z,27.43
2019-05-12T10:22:14.382Z,26.91
2019-05-12T10:26:22.175Z,27.80
2019-05-12T10:30:30.364Z,27.89
2019-05-12T10:34:40.447Z,28.28
2019-05-12T10:38:48.477Z,28.16
2019-05-12T10:42:57.052Z,27.44
2019-05-12T10:47:05.664Z,27.91
2019-05-12T10:51:13.543Z,28.08
2019-05-12T10:55:23.910Z,28.31
2019-05-12T10:59:33.420Z,27.31
2019-05-12T11:03:43.049Z,27.90
2019-05-12T11:07:53.862Z,28.57
2019-05-12T11:12:03.243Z,27.09
2019-05-12T11:16:10.534Z,27.09
2019-05-12T11:20:18.338Z,27.94
2019-05-12T11:24:26.371Z,27.75
2019-05-12T11:28:34.356Z,27.75
2019-05-12T11:32:44.141Z,25.81
2019-05-12T11:36:54.337Z,25.98
2019-05-12T11:41:01.623Z,26.53
2019-05-12T11:45:09.658Z,27.04
2019-05-12T11:49:21.726Z,27.79
2019-05-12T11:53:31.151Z,28.10
2019-05-12T11:57:37.679Z,28.64
2019-05-12T12:01:49.767Z,28.64
2019-05-12T12:06:05.563Z,26.96
2019-05-12T12:10:14.215Z,27.75
2019-05-12T12:14:23.869Z,27.14
2019-05-12T12:18:47.945Z,25.85
2019-05-12T12:22:50.860Z,25.85
2019-05-12T12:26:58.924Z,25.39
2019-05-12T12:31:07.829Z,24.54
2019-05-12T12:35:16.018Z,24.81
2019-05-12T12:39:23.851Z,25.84
2019-05-12T12:43:31.914Z,24.36
2019-05-12T12:47:44.372Z,23.87
2019-05-12T12:51:48.818Z,24.47
2019-05-12T12:55:58.762Z,24.05
2019-05-12T13:00:07.294Z,24.15
2019-05-12T13:04:14.652Z,22.70
2019-05-12T13:08:24.772Z,22.92
2019-05-12T13:12:35.624Z,22.46
2019-05-12T13:16:43.697Z,22.77
2019-05-12T13:20:53.826Z,22.56
2019-05-12T13:25:04.585Z,22.61
2019-05-12T13:29:09.752Z,21.65
2019-05-12T13:33:18.441Z,21.80
2019-05-12T13:37:26.228Z,21.83
2019-05-12T13:41:34.322Z,21.86
2019-05-12T13:45:43.966Z,21.41
2019-05-12T13:49:51.358Z,21.62
2019-05-12T13:53:59.539Z,20.52
2019-05-12T13:58:07.328Z,20.55
2019-05-12T14:02:22.057Z,20.71
2019-05-12T14:06:32.053Z,20.83
2019-05-12T14:10:37.389Z,20.61
2019-05-12T14:14:43.779Z,20.43
2019-05-12T14:18:57.042Z,20.07
2019-05-12T14:23:01.143Z,19.68
2019-05-12T14:27:09.315Z,19.92
2019-05-12T14:31:26.601Z,19.75
2019-05-12T14:35:26.397Z,19.48
2019-05-12T14:39:40.116Z,19.64
2019-05-12T14:43:47.864Z,19.41
2019-05-12T14:48:00.003Z,19.20
2019-05-12T14:52:04.754Z,19.13
2019-05-12T14:56:14.085Z,19.10
2019-05-12T15:00:24.076Z,18.80
2019-05-12T15:04:31.328Z,18.86
2019-05-12T15:08:40.327Z,18.90
2019-05-12T15:12:48.118Z,18.82
2019-05-12T15:16:55.844Z,18.69
2019-05-12T15:21:05.359Z,18.68
2019-05-12T15:25:19.137Z,18.68
2019-05-12T15:29:27.961Z,18.53
2019-05-12T15:33:35.371Z,18.53
2019-05-12T15:37:43.862Z,18.53
2019-05-12T15:41:56.508Z,18.21
2019-05-12T15:46:01.811Z,18.13
2019-05-12T15:50:11.219Z,18.05
2019-05-12T15:54:19.025Z,18.01
2019-05-12T15:58:26.681Z,18.04
2019-05-12T16:02:34.581Z,18.02
2019-05-12T16:06:52.971Z,17.86
2019-05-12T16:10:53.537Z,17.86
2019-05-12T16:15:04.562Z,17.74
2019-05-12T16:19:11.656Z,17.74
2019-05-12T16:23:28.041Z,17.70
2019-05-12T16:27:35.625Z,17.60
2019-05-12T16:31:45.631Z,17.44
2019-05-12T16:35:49.931Z,17.43
2019-05-12T16:39:57.728Z,17.44
2019-05-12T16:44:07.916Z,17.42
2019-05-12T16:48:29.282Z,17.25
2019-05-12T16:52:24.572Z,17.25
2019-05-12T16:56:33.937Z,17.12
2019-05-12T17:00:45.149Z,17.11
2019-05-12T17:04:53.953Z,17.04
2019-05-12T17:09:03.366Z,17.07
2019-05-12T17:13:13.841Z,16.93
2019-05-12T17:17:21.408Z,16.82
2019-05-12T17:21:29.638Z,16.69
2019-05-12T17:25:37.369Z,16.70
2019-05-12T17:29:45.171Z,16.74
2019-05-12T17:33:54.354Z,16.73
2019-05-12T17:38:04.301Z,16.81
2019-05-12T17:42:20.889Z,16.94
2019-05-12T17:46:23.334Z,16.82
2019-05-12T17:50:31.172Z,16.65
2019-05-12T17:54:39.103Z,16.61
2019-05-12T17:58:47.659Z,16.67
2019-05-12T18:03:14.160Z,16.63
2019-05-12T18:07:13.314Z,16.52
2019-05-12T18:11:16.059Z,16.39
2019-05-12T18:15:32.497Z,16.29
2019-05-12T18:19:33.820Z,16.21
2019-05-12T18:23:43.470Z,16.12
2019-05-12T18:27:51.102Z,15.98
2019-05-12T18:31:58.979Z,15.87
2019-05-12T18:36:06.379Z,15.87
2019-05-12T18:40:14.851Z,15.80
2019-05-12T18:44:28.984Z,15.79
2019-05-12T18:48:34.277Z,15.76
2019-05-12T18:52:43.653Z,15.70
2019-05-12T18:56:52.472Z,15.57
2019-05-12T19:01:00.443Z,15.50
2019-05-12T19:05:12.930Z,15.43
2019-05-12T19:09:18.711Z,15.32
2019-05-12T19:13:27.027Z,15.17
2019-05-12T19:17:35.059Z,15.09
2019-05-12T19:21:43.818Z,15.04
2019-05-12T19:25:54.177Z,15.05
2019-05-12T19:30:04.286Z,15.02
2019-05-12T19:34:20.045Z,14.94
2019-05-12T19:38:23.937Z,14.84
2019-05-12T19:42:31.395Z,14.81
2019-05-12T19:46:39.765Z,14.80
2019-05-12T19:50:54.977Z,14.80
2019-05-12T19:54:58.532Z,14.77
2019-05-12T19:59:06.379Z,14.72
2019-05-12T20:03:14.487Z,14.64
2019-05-12T20:07:23.379Z,14.60
2019-05-12T20:11:32.160Z,14.50
2019-05-12T20:15:43.177Z,14.46
2019-05-12T20:19:49.930Z,14.56
2019-05-12T20:23:58.028Z,14.64
2019-05-12T20:28:11.300Z,14.63
2019-05-12T20:32:16.327Z,14.65
2019-05-12T20:36:25.927Z,14.58
2019-05-12T20:40:37.558Z,14.62
2019-05-12T20:44:45.176Z,14.70
2019-05-12T20:48:53.943Z,14.58
2019-05-12T20:53:03.902Z,14.48
2019-05-12T20:57:14.037Z,14.45
2019-05-12T21:01:26.639Z,14.55
2019-05-12T21:05:34.336Z,14.62
2019-05-12T21:09:44.145Z,14.46
2019-05-12T21:13:54.575Z,14.39
2019-05-12T21:18:07.241Z,14.44
2019-05-12T21:22:14.237Z,14.52
2019-05-12T21:26:22.812Z,14.46
2019-05-12T21:30:42.328Z,14.39
2019-05-12T21:34:52.380Z,14.37
2019-05-12T21:38:59.515Z,14.32
2019-05-12T21:43:08.064Z,14.21
2019-05-12T21:47:15.876Z,14.17
2019-05-12T21:51:24.132Z,14.18
2019-05-12T21:55:34.003Z,14.08
2019-05-12T21:59:41.941Z,14.12
2019-05-12T22:03:57.872Z,14.15
2019-05-12T22:08:00.394Z,14.18
2019-05-12T22:12:08.701Z,14.12
2019-05-12T22:16:16.288Z,14.08
2019-05-12T22:20:23.923Z,13.94
2019-05-12T22:24:37.290Z,13.92
2019-05-12T22:28:46.693Z,13.84
2019-05-12T22:32:51.279Z,13.67
2019-05-12T22:36:59.516Z,13.71
2019-05-12T22:41:08.993Z,13.81
2019-05-12T22:45:16.933Z,13.72
2019-05-12T22:49:25.206Z,13.70
2019-05-12T22:53:32.867Z,13.53
2019-05-12T22:57:40.709Z,13.50
2019-05-12T23:01:48.547Z,13.53
2019-05-12T23:06:01.420Z,13.53
2019-05-12T23:10:11.015Z,13.50
2019-05-12T23:14:20.681Z,13.47
2019-05-12T23:18:30.692Z,13.33
2019-05-12T23:22:38.112Z,13.41
2019-05-12T23:26:47.990Z,13.55
2019-05-12T23:30:56.493Z,13.51
2019-05-12T23:35:04.996Z,13.40
2019-05-12T23:39:14.338Z,13.27
2019-05-12T23:43:23.794Z,13.24
2019-05-12T23:47:34.335Z,13.16
2019-05-12T23:51:43.882Z,13.14
2019-05-12T23:55:51.519Z,12.96
2019-05-12T23:59:59.518Z,12.93
